Aviation Digital Data Service (ADDS)

Output produced by METARs form (0236 UTC 03 August 2015)
found at http://aviationweather.gov/adds/metars/
 
KISO 022355Z 0300/0324 19007KT P6SM SKC 
     FM030800 19002KT 5SM BR SKC 
     FM031200 21006KT P6SM BKN200 
     FM031700 20010KT P6SM VCSH SCT050 AMD LTD TO CLD VIS AND WIND